createdAt,value
2022-11-24T05:00:59.902Z,8.38
2022-11-24T05:05:11.451Z,6.40
2022-11-24T05:09:32.514Z,10.05
2022-11-24T05:13:53.476Z,12.43
2022-11-24T05:18:07.052Z,9.30
2022-11-24T05:22:18.561Z,8.13
2022-11-24T05:26:30.137Z,14.73
2022-11-24T05:30:42.335Z,9.93
2022-11-24T05:34:54.584Z,7.82
2022-11-24T05:39:06.100Z,9.82
2022-11-24T05:43:17.957Z,9.43
2022-11-24T05:47:29.461Z,11.20
2022-11-24T05:51:41.162Z,9.07
2022-11-24T05:55:52.683Z,13.30
2022-11-24T06:00:07.385Z,8.98
2022-11-24T06:04:23.878Z,9.93
2022-11-24T06:08:35.367Z,14.05
2022-11-24T06:12:46.931Z,10.90
2022-11-24T06:16:58.567Z,14.02
2022-11-24T06:21:11.760Z,7.70
2022-11-24T06:25:23.716Z,9.35
2022-11-24T06:29:35.209Z,8.18
2022-11-24T06:33:47.632Z,10.32
2022-11-24T06:37:59.204Z,10.48
2022-11-24T06:42:10.758Z,7.75
2022-11-24T06:46:22.686Z,9.98
2022-11-24T06:50:34.237Z,10.50
2022-11-24T06:54:45.730Z,9.15
2022-11-24T06:58:57.205Z,14.40
2022-11-24T07:03:15.473Z,8.70
2022-11-24T07:07:27.115Z,10.40
2022-11-24T07:11:39.730Z,9.38
2022-11-24T07:15:51.264Z,11.13
2022-11-24T07:20:03.236Z,8.77
2022-11-24T07:24:14.844Z,8.02
2022-11-24T07:28:26.391Z,4.47
2022-11-24T07:32:38.000Z,6.50
2022-11-24T07:36:50.099Z,8.43
2022-11-24T07:41:08.322Z,7.95
2022-11-24T07:45:20.007Z,10.38
2022-11-24T07:49:31.646Z,14.05
2022-11-24T07:53:43.562Z,9.82
2022-11-24T07:57:55.070Z,9.68
2022-11-24T08:02:06.687Z,8.50
2022-11-24T08:06:32.294Z,7.20
2022-11-24T08:10:47.672Z,10.00
2022-11-24T08:14:59.198Z,9.18
2022-11-24T08:19:11.960Z,11.23
2022-11-24T08:23:23.438Z,5.00
2022-11-24T08:27:34.991Z,9.98
2022-11-24T08:31:46.642Z,11.50
2022-11-24T08:36:06.733Z,5.65
2022-11-24T08:40:18.247Z,8.20
2022-11-24T08:44:29.821Z,9.95
2022-11-24T08:48:41.681Z,6.60
2022-11-24T08:52:53.747Z,6.35
2022-11-24T08:57:05.267Z,7.93
2022-11-24T09:01:17.763Z,10.07
2022-11-24T09:05:51.101Z,7.13
2022-11-24T09:10:00.927Z,7.32
2022-11-24T09:14:12.444Z,9.07
2022-11-24T09:18:27.580Z,6.68
2022-11-24T09:22:43.037Z,5.53
2022-11-24T09:26:55.604Z,4.55
2022-11-24T09:31:13.012Z,7.90
2022-11-24T09:35:25.021Z,4.50
2022-11-24T09:39:36.808Z,5.50
2022-11-24T09:44:08.675Z,12.48
2022-11-24T09:48:30.477Z,7.82
2022-11-24T09:53:03.454Z,7.40
2022-11-24T09:57:17.680Z,8.82
2022-11-24T10:01:37.513Z,5.53
2022-11-24T10:05:51.091Z,15.80
2022-11-24T10:10:25.237Z,11.88
2022-11-24T10:14:55.972Z,6.80
2022-11-24T10:19:22.306Z,8.27
2022-11-24T10:23:43.806Z,9.15
2022-11-24T10:28:03.115Z,10.57
2022-11-24T10:32:24.115Z,10.18
2022-11-24T10:36:56.889Z,12.40
2022-11-24T10:41:16.528Z,5.43
2022-11-24T10:45:28.614Z,6.75
2022-11-24T10:49:40.142Z,7.13
2022-11-24T10:54:08.150Z,4.43
2022-11-24T10:58:35.836Z,7.18
2022-11-24T11:02:50.240Z,11.63
2022-11-24T11:07:28.128Z,8.27
2022-11-24T11:11:40.070Z,5.82
2022-11-24T11:15:51.631Z,7.78
2022-11-24T11:20:06.975Z,8.23
2022-11-24T11:24:18.619Z,4.22
2022-11-24T11:28:30.173Z,8.23
2022-11-24T11:37:33.181Z,5.75
2022-11-24T11:41:49.516Z,8.35
2022-11-24T11:46:12.108Z,10.13
2022-11-24T11:50:31.731Z,9.60
2022-11-24T11:55:02.301Z,9.07
2022-11-24T11:59:36.337Z,6.95
2022-11-24T12:04:25.055Z,6.72
2022-11-24T12:09:20.727Z,5.00
2022-11-24T12:13:51.938Z,5.47
2022-11-24T12:18:55.394Z,12.57
2022-11-24T12:23:11.361Z,7.75
2022-11-24T12:27:48.524Z,9.15
2022-11-24T12:32:11.728Z,11.50
2022-11-24T12:36:49.125Z,9.05
2022-11-24T12:41:40.996Z,6.00
2022-11-24T12:46:12.518Z,9.90
2022-11-24T12:50:30.557Z,8.10
2022-11-24T12:54:42.103Z,8.68
2022-11-24T12:59:20.801Z,11.43
2022-11-24T13:04:01.693Z,7.47
2022-11-24T13:08:14.158Z,5.32
2022-11-24T13:12:25.709Z,9.60
2022-11-24T13:21:51.709Z,7.40
2022-11-24T13:26:30.685Z,7.13
2022-11-24T13:30:45.182Z,7.97
2022-11-24T13:35:03.814Z,7.93
2022-11-24T13:39:21.097Z,5.55
2022-11-24T13:43:32.657Z,3.65
2022-11-24T13:47:47.419Z,7.35
2022-11-24T13:52:37.189Z,7.00
2022-11-24T13:56:48.676Z,10.27
2022-11-24T14:01:19.236Z,6.22
2022-11-24T14:05:38.246Z,4.32
2022-11-24T14:09:53.266Z,6.45
2022-11-24T14:14:20.840Z,8.63
2022-11-24T14:18:34.182Z,6.68
2022-11-24T14:22:45.772Z,6.38
2022-11-24T14:26:57.336Z,5.72
2022-11-24T14:31:18.127Z,6.28
2022-11-24T14:35:35.228Z,7.05
2022-11-24T14:39:46.978Z,5.97
2022-11-24T14:44:20.482Z,3.83
2022-11-24T14:48:38.287Z,6.60
2022-11-24T14:52:54.787Z,9.38
2022-11-24T14:57:06.754Z,5.53
2022-11-24T15:01:28.291Z,7.25
2022-11-24T15:05:58.523Z,7.25
2022-11-24T15:10:36.184Z,11.70
2022-11-24T15:14:54.479Z,8.38
2022-11-24T15:19:07.915Z,11.02
2022-11-24T15:23:30.308Z,8.35
2022-11-24T15:27:41.783Z,12.13
2022-11-24T15:31:53.443Z,14.02
2022-11-24T15:36:05.256Z,8.50
2022-11-24T15:40:17.259Z,9.32
2022-11-24T15:44:29.497Z,13.95
2022-11-24T15:48:41.031Z,10.15
2022-11-24T15:52:52.766Z,11.73
2022-11-24T15:57:04.281Z,16.63
2022-11-24T16:01:16.113Z,15.02
2022-11-24T16:05:27.915Z,18.08
2022-11-24T16:09:39.448Z,22.20
2022-11-24T16:13:53.963Z,16.50
2022-11-24T16:18:06.452Z,15.35
2022-11-24T16:22:18.007Z,13.32
2022-11-24T16:26:29.541Z,15.25
2022-11-24T16:30:41.079Z,10.43
2022-11-24T16:34:52.737Z,9.38
2022-11-24T16:39:04.254Z,11.88
2022-11-24T16:43:15.842Z,12.77
2022-11-24T16:47:27.529Z,10.82
2022-11-24T16:51:39.102Z,14.38
2022-11-24T16:55:57.678Z,8.38
2022-11-24T17:00:10.049Z,10.57
2022-11-24T17:04:21.564Z,9.00
2022-11-24T17:08:39.247Z,13.93
2022-11-24T17:12:50.762Z,10.25
2022-11-24T17:17:04.975Z,11.70
2022-11-24T17:21:21.763Z,7.20
2022-11-24T17:25:33.297Z,7.70
2022-11-24T17:29:44.882Z,8.60
2022-11-24T17:33:58.344Z,6.38
2022-11-24T17:38:09.956Z,10.43
2022-11-24T17:42:21.509Z,12.00
2022-11-24T17:46:33.379Z,14.73
2022-11-24T17:50:44.919Z,22.95
2022-11-24T17:54:57.532Z,17.83
2022-11-24T17:59:09.375Z,16.30
2022-11-24T18:03:21.145Z,15.93
2022-11-24T18:07:36.068Z,17.60
2022-11-24T18:11:47.888Z,11.13
2022-11-24T18:16:04.354Z,8.45
2022-11-24T18:20:15.898Z,10.15
2022-11-24T18:24:27.418Z,11.07
2022-11-24T18:28:38.932Z,9.77
2022-11-24T18:32:50.468Z,10.45
2022-11-24T18:37:01.991Z,10.57
2022-11-24T18:41:14.820Z,7.57
2022-11-24T18:45:26.507Z,23.50
2022-11-24T18:49:38.085Z,21.35
2022-11-24T18:53:53.306Z,19.70
2022-11-24T18:58:04.891Z,13.32
2022-11-24T19:02:16.492Z,22.50
2022-11-24T19:06:33.388Z,22.60
2022-11-24T19:10:45.250Z,15.13
2022-11-24T19:14:56.753Z,13.05
2022-11-24T19:19:10.189Z,15.80
2022-11-24T19:23:22.326Z,14.13
2022-11-24T19:27:34.176Z,14.75
2022-11-24T19:31:46.175Z,12.77
2022-11-24T19:36:06.519Z,12.95
2022-11-24T19:40:18.509Z,18.83
2022-11-24T19:44:30.030Z,19.00
2022-11-24T19:48:47.112Z,15.90
2022-11-24T19:52:58.627Z,16.92
2022-11-24T19:57:10.181Z,18.38
2022-11-24T20:01:29.854Z,23.70
2022-11-24T20:05:41.520Z,14.57
2022-11-24T20:09:53.132Z,42.60
2022-11-24T20:14:06.411Z,26.55
2022-11-24T20:18:17.979Z,26.08
2022-11-24T20:22:29.694Z,20.85
2022-11-24T20:26:45.118Z,14.75
2022-11-24T20:31:01.481Z,20.63
2022-11-24T20:35:18.002Z,13.43
2022-11-24T20:39:29.986Z,13.65
2022-11-24T20:43:42.794Z,12.13
2022-11-24T20:47:54.376Z,13.93
2022-11-24T21:27:54.357Z,18.70
2022-11-24T21:38:19.684Z,24.88
2022-11-24T21:42:31.191Z,19.27
2022-11-24T21:46:48.054Z,31.05
2022-11-24T21:51:02.965Z,24.05
2022-11-24T21:55:14.489Z,24.83
2022-11-24T21:59:25.955Z,23.70
2022-11-24T22:03:37.446Z,25.60
2022-11-24T22:07:50.266Z,37.43
2022-11-24T22:12:01.811Z,27.30
2022-11-24T22:16:16.668Z,33.07
2022-11-24T22:20:28.303Z,27.90
2022-11-24T22:24:40.030Z,23.73
2022-11-24T22:28:53.707Z,13.18
